sensor_id;sensor_type;location;lat;lon;timestamp;temperature;humidity
39931;DHT22;26635;-35.248;149.138;2023-07-22T00:01:15;5.70;83.10
39931;DHT22;26635;-35.248;149.138;2023-07-22T00:03:48;5.70;82.60
39931;DHT22;26635;-35.248;149.138;2023-07-22T00:06:19;5.90;82.90
39931;DHT22;26635;-35.248;149.138;2023-07-22T00:08:50;6.00;82.90
39931;DHT22;26635;-35.248;149.138;2023-07-22T00:11:23;6.20;82.40
39931;DHT22;26635;-35.248;149.138;2023-07-22T00:13:56;6.40;81.10
39931;DHT22;26635;-35.248;149.138;2023-07-22T00:16:26;6.50;80.30
39931;DHT22;26635;-35.248;149.138;2023-07-22T00:19:01;6.70;80.60
39931;DHT22;26635;-35.248;149.138;2023-07-22T00:21:32;6.90;79.50
39931;DHT22;26635;-35.248;149.138;2023-07-22T00:24:04;7.00;79.20
39931;DHT22;26635;-35.248;149.138;2023-07-22T00:26:35;7.10;79.70
39931;DHT22;26635;-35.248;149.138;2023-07-22T00:29:07;7.30;78.70
39931;DHT22;26635;-35.248;149.138;2023-07-22T00:31:38;7.40;78.20
39931;DHT22;26635;-35.248;149.138;2023-07-22T00:34:09;7.50;78.90
39931;DHT22;26635;-35.248;149.138;2023-07-22T00:36:40;7.70;78.10
39931;DHT22;26635;-35.248;149.138;2023-07-22T00:39:11;7.90;77.40
39931;DHT22;26635;-35.248;149.138;2023-07-22T00:41:44;8.00;76.80
39931;DHT22;26635;-35.248;149.138;2023-07-22T00:44:14;8.20;76.50
39931;DHT22;26635;-35.248;149.138;2023-07-22T00:46:46;8.30;75.60
39931;DHT22;26635;-35.248;149.138;2023-07-22T00:49:17;8.40;75.20
39931;DHT22;26635;-35.248;149.138;2023-07-22T00:51:48;8.50;75.50
39931;DHT22;26635;-35.248;149.138;2023-07-22T00:54:19;8.60;76.00
39931;DHT22;26635;-35.248;149.138;2023-07-22T00:56:50;8.80;74.80
39931;DHT22;26635;-35.248;149.138;2023-07-22T00:59:23;8.90;73.80
39931;DHT22;26635;-35.248;149.138;2023-07-22T01:01:54;9.00;72.10
39931;DHT22;26635;-35.248;149.138;2023-07-22T01:04:25;9.00;72.30
39931;DHT22;26635;-35.248;149.138;2023-07-22T01:06:56;9.10;71.00
39931;DHT22;26635;-35.248;149.138;2023-07-22T01:09:37;9.20;71.20
39931;DHT22;26635;-35.248;149.138;2023-07-22T01:12:10;9.30;71.20
39931;DHT22;26635;-35.248;149.138;2023-07-22T01:14:42;9.40;69.80
39931;DHT22;26635;-35.248;149.138;2023-07-22T01:17:13;9.40;69.90
39931;DHT22;26635;-35.248;149.138;2023-07-22T01:19:44;9.50;70.30
39931;DHT22;26635;-35.248;149.138;2023-07-22T01:22:17;9.50;69.30
39931;DHT22;26635;-35.248;149.138;2023-07-22T01:24:48;9.60;71.10
39931;DHT22;26635;-35.248;149.138;2023-07-22T01:27:19;9.70;69.80
39931;DHT22;26635;-35.248;149.138;2023-07-22T01:29:53;9.70;69.70
39931;DHT22;26635;-35.248;149.138;2023-07-22T01:32:23;9.80;69.60
39931;DHT22;26635;-35.248;149.138;2023-07-22T01:34:54;9.90;68.80
39931;DHT22;26635;-35.248;149.138;2023-07-22T01:37:26;10.00;67.40
39931;DHT22;26635;-35.248;149.138;2023-07-22T01:39:57;10.00;67.80
39931;DHT22;26635;-35.248;149.138;2023-07-22T01:42:27;10.10;67.50
39931;DHT22;26635;-35.248;149.138;2023-07-22T01:44:58;10.10;68.40
39931;DHT22;26635;-35.248;149.138;2023-07-22T01:47:29;10.30;68.70
39931;DHT22;26635;-35.248;149.138;2023-07-22T01:50:01;10.40;68.70
39931;DHT22;26635;-35.248;149.138;2023-07-22T01:52:32;10.40;69.00
39931;DHT22;26635;-35.248;149.138;2023-07-22T01:55:04;10.50;68.40
39931;DHT22;26635;-35.248;149.138;2023-07-22T01:57:35;10.50;68.30
39931;DHT22;26635;-35.248;149.138;2023-07-22T02:00:08;10.60;69.10
39931;DHT22;26635;-35.248;149.138;2023-07-22T02:02:45;10.60;67.10
39931;DHT22;26635;-35.248;149.138;2023-07-22T02:05:16;10.60;68.00
39931;DHT22;26635;-35.248;149.138;2023-07-22T02:07:48;10.70;68.00
39931;DHT22;26635;-35.248;149.138;2023-07-22T02:10:19;10.80;67.60
39931;DHT22;26635;-35.248;149.138;2023-07-22T02:12:50;10.90;68.40
39931;DHT22;26635;-35.248;149.138;2023-07-22T02:15:20;11.10;68.30
39931;DHT22;26635;-35.248;149.138;2023-07-22T02:17:53;11.20;67.10
39931;DHT22;26635;-35.248;149.138;2023-07-22T02:20:26;11.30;66.00
39931;DHT22;26635;-35.248;149.138;2023-07-22T02:22:58;11.40;65.00
39931;DHT22;26635;-35.248;149.138;2023-07-22T02:25:29;11.50;64.40
39931;DHT22;26635;-35.248;149.138;2023-07-22T02:28:00;11.60;65.60
39931;DHT22;26635;-35.248;149.138;2023-07-22T02:30:30;11.60;63.50
39931;DHT22;26635;-35.248;149.138;2023-07-22T02:33:06;11.60;63.60
39931;DHT22;26635;-35.248;149.138;2023-07-22T02:35:37;11.60;65.10
39931;DHT22;26635;-35.248;149.138;2023-07-22T02:38:07;11.70;65.30
39931;DHT22;26635;-35.248;149.138;2023-07-22T02:40:38;11.70;63.90
39931;DHT22;26635;-35.248;149.138;2023-07-22T02:43:11;11.70;63.40
39931;DHT22;26635;-35.248;149.138;2023-07-22T02:45:42;11.80;64.10
39931;DHT22;26635;-35.248;149.138;2023-07-22T02:48:13;11.80;64.40
39931;DHT22;26635;-35.248;149.138;2023-07-22T02:50:44;11.80;64.40
39931;DHT22;26635;-35.248;149.138;2023-07-22T02:53:15;11.90;64.50
39931;DHT22;26635;-35.248;149.138;2023-07-22T02:55:47;11.90;64.00
39931;DHT22;26635;-35.248;149.138;2023-07-22T02:58:20;12.00;63.20
39931;DHT22;26635;-35.248;149.138;2023-07-22T03:00:51;12.10;64.20
39931;DHT22;26635;-35.248;149.138;2023-07-22T03:03:24;12.10;63.90
39931;DHT22;26635;-35.248;149.138;2023-07-22T03:05:56;12.00;61.60
39931;DHT22;26635;-35.248;149.138;2023-07-22T03:08:27;12.10;63.20
39931;DHT22;26635;-35.248;149.138;2023-07-22T03:10:59;12.10;63.30
39931;DHT22;26635;-35.248;149.138;2023-07-22T03:13:32;12.20;63.20
39931;DHT22;26635;-35.248;149.138;2023-07-22T03:16:04;12.20;63.10
39931;DHT22;26635;-35.248;149.138;2023-07-22T03:18:36;12.20;64.70
39931;DHT22;26635;-35.248;149.138;2023-07-22T03:21:08;12.20;63.40
39931;DHT22;26635;-35.248;149.138;2023-07-22T03:23:39;12.30;63.00
39931;DHT22;26635;-35.248;149.138;2023-07-22T03:26:10;12.40;62.50
39931;DHT22;26635;-35.248;149.138;2023-07-22T03:28:41;12.40;63.00
39931;DHT22;26635;-35.248;149.138;2023-07-22T03:31:12;12.50;62.00
39931;DHT22;26635;-35.248;149.138;2023-07-22T03:33:43;12.50;63.60
39931;DHT22;26635;-35.248;149.138;2023-07-22T03:36:18;12.50;62.70
39931;DHT22;26635;-35.248;149.138;2023-07-22T03:38:49;12.40;62.70
39931;DHT22;26635;-35.248;149.138;2023-07-22T03:41:20;12.50;62.00
39931;DHT22;26635;-35.248;149.138;2023-07-22T03:43:51;12.50;62.60
39931;DHT22;26635;-35.248;149.138;2023-07-22T03:46:22;12.50;62.40
39931;DHT22;26635;-35.248;149.138;2023-07-22T03:48:55;12.50;62.30
39931;DHT22;26635;-35.248;149.138;2023-07-22T03:51:26;12.50;62.20
39931;DHT22;26635;-35.248;149.138;2023-07-22T03:53:57;12.60;61.60
39931;DHT22;26635;-35.248;149.138;2023-07-22T03:56:28;12.60;62.80
39931;DHT22;26635;-35.248;149.138;2023-07-22T03:58:59;12.60;62.90
39931;DHT22;26635;-35.248;149.138;2023-07-22T04:01:30;12.60;61.30
39931;DHT22;26635;-35.248;149.138;2023-07-22T04:04:01;12.60;61.60
39931;DHT22;26635;-35.248;149.138;2023-07-22T04:06:32;12.60;60.70
39931;DHT22;26635;-35.248;149.138;2023-07-22T04:09:03;12.60;60.10
39931;DHT22;26635;-35.248;149.138;2023-07-22T04:11:34;12.60;59.90
39931;DHT22;26635;-35.248;149.138;2023-07-22T04:14:05;12.60;60.20
39931;DHT22;26635;-35.248;149.138;2023-07-22T04:16:35;12.50;60.90
39931;DHT22;26635;-35.248;149.138;2023-07-22T04:19:06;12.50;61.50
39931;DHT22;26635;-35.248;149.138;2023-07-22T04:21:37;12.50;61.80
39931;DHT22;26635;-35.248;149.138;2023-07-22T04:24:08;12.50;61.90
39931;DHT22;26635;-35.248;149.138;2023-07-22T04:26:45;12.50;61.20
39931;DHT22;26635;-35.248;149.138;2023-07-22T04:29:17;12.60;61.50
39931;DHT22;26635;-35.248;149.138;2023-07-22T04:31:47;12.50;62.30
39931;DHT22;26635;-35.248;149.138;2023-07-22T04:34:18;12.50;62.30
39931;DHT22;26635;-35.248;149.138;2023-07-22T04:36:49;12.50;62.30
39931;DHT22;26635;-35.248;149.138;2023-07-22T04:39:20;12.50;62.90
39931;DHT22;26635;-35.248;149.138;2023-07-22T04:41:51;12.40;63.50
39931;DHT22;26635;-35.248;149.138;2023-07-22T04:44:22;12.50;62.60
39931;DHT22;26635;-35.248;149.138;2023-07-22T04:46:53;12.50;63.00
39931;DHT22;26635;-35.248;149.138;2023-07-22T04:49:24;12.50;63.10
39931;DHT22;26635;-35.248;149.138;2023-07-22T04:51:57;12.50;63.30
39931;DHT22;26635;-35.248;149.138;2023-07-22T04:54:28;12.50;63.10
39931;DHT22;26635;-35.248;149.138;2023-07-22T04:56:59;12.50;63.30
39931;DHT22;26635;-35.248;149.138;2023-07-22T04:59:30;12.50;63.40
39931;DHT22;26635;-35.248;149.138;2023-07-22T05:02:02;12.50;64.10
39931;DHT22;26635;-35.248;149.138;2023-07-22T05:04:32;12.50;63.90
39931;DHT22;26635;-35.248;149.138;2023-07-22T05:07:03;12.50;64.50
39931;DHT22;26635;-35.248;149.138;2023-07-22T05:09:34;12.50;64.60
39931;DHT22;26635;-35.248;149.138;2023-07-22T05:12:05;12.30;64.70
39931;DHT22;26635;-35.248;149.138;2023-07-22T05:14:36;12.30;65.30
39931;DHT22;26635;-35.248;149.138;2023-07-22T05:17:07;12.30;65.00
39931;DHT22;26635;-35.248;149.138;2023-07-22T05:19:38;12.30;64.30
39931;DHT22;26635;-35.248;149.138;2023-07-22T05:22:09;12.20;65.40
39931;DHT22;26635;-35.248;149.138;2023-07-22T05:24:40;12.20;66.20
39931;DHT22;26635;-35.248;149.138;2023-07-22T05:27:11;12.20;65.60
39931;DHT22;26635;-35.248;149.138;2023-07-22T05:29:42;12.10;65.60
39931;DHT22;26635;-35.248;149.138;2023-07-22T05:32:12;12.10;66.10
39931;DHT22;26635;-35.248;149.138;2023-07-22T05:35:00;12.00;66.00
39931;DHT22;26635;-35.248;149.138;2023-07-22T05:37:34;12.00;66.10
39931;DHT22;26635;-35.248;149.138;2023-07-22T05:40:05;12.00;66.00
39931;DHT22;26635;-35.248;149.138;2023-07-22T05:42:37;11.90;66.50
39931;DHT22;26635;-35.248;149.138;2023-07-22T05:45:08;11.90;66.60
39931;DHT22;26635;-35.248;149.138;2023-07-22T05:47:43;11.90;66.60
39931;DHT22;26635;-35.248;149.138;2023-07-22T05:50:14;11.80;67.40
39931;DHT22;26635;-35.248;149.138;2023-07-22T05:52:45;11.80;67.60
39931;DHT22;26635;-35.248;149.138;2023-07-22T05:55:16;11.80;67.80
39931;DHT22;26635;-35.248;149.138;2023-07-22T05:57:47;11.70;68.30
39931;DHT22;26635;-35.248;149.138;2023-07-22T06:00:18;11.70;68.90
39931;DHT22;26635;-35.248;149.138;2023-07-22T06:02:49;11.70;69.10
39931;DHT22;26635;-35.248;149.138;2023-07-22T06:05:21;11.70;69.70
39931;DHT22;26635;-35.248;149.138;2023-07-22T06:07:52;11.60;70.10
39931;DHT22;26635;-35.248;149.138;2023-07-22T06:10:24;11.60;70.40
39931;DHT22;26635;-35.248;149.138;2023-07-22T06:12:55;11.60;70.60
39931;DHT22;26635;-35.248;149.138;2023-07-22T06:15:27;11.50;70.70
39931;DHT22;26635;-35.248;149.138;2023-07-22T06:17:58;11.50;71.80
39931;DHT22;26635;-35.248;149.138;2023-07-22T06:20:29;11.40;71.60
39931;DHT22;26635;-35.248;149.138;2023-07-22T06:23:01;11.40;71.80
39931;DHT22;26635;-35.248;149.138;2023-07-22T06:25:32;11.30;72.40
39931;DHT22;26635;-35.248;149.138;2023-07-22T06:28:04;11.30;72.80
39931;DHT22;26635;-35.248;149.138;2023-07-22T06:30:35;11.10;73.20
39931;DHT22;26635;-35.248;149.138;2023-07-22T06:33:07;11.10;72.70
39931;DHT22;26635;-35.248;149.138;2023-07-22T06:35:38;11.00;73.10
39931;DHT22;26635;-35.248;149.138;2023-07-22T06:38:10;10.90;72.90
39931;DHT22;26635;-35.248;149.138;2023-07-22T06:40:56;10.80;73.20
39931;DHT22;26635;-35.248;149.138;2023-07-22T06:43:27;10.70;73.60
39931;DHT22;26635;-35.248;149.138;2023-07-22T06:45:58;10.60;73.50
39931;DHT22;26635;-35.248;149.138;2023-07-22T06:48:31;10.60;73.30
39931;DHT22;26635;-35.248;149.138;2023-07-22T06:51:02;10.50;73.40
39931;DHT22;26635;-35.248;149.138;2023-07-22T06:53:33;10.40;72.90
39931;DHT22;26635;-35.248;149.138;2023-07-22T06:56:04;10.40;73.50
39931;DHT22;26635;-35.248;149.138;2023-07-22T06:58:35;10.30;73.80
39931;DHT22;26635;-35.248;149.138;2023-07-22T07:01:06;10.20;73.60
39931;DHT22;26635;-35.248;149.138;2023-07-22T07:03:38;10.10;73.30
39931;DHT22;26635;-35.248;149.138;2023-07-22T07:06:12;10.10;72.80
39931;DHT22;26635;-35.248;149.138;2023-07-22T07:08:42;10.00;72.70
39931;DHT22;26635;-35.248;149.138;2023-07-22T07:11:13;9.90;73.10
39931;DHT22;26635;-35.248;149.138;2023-07-22T07:13:44;9.80;72.70
39931;DHT22;26635;-35.248;149.138;2023-07-22T07:16:26;9.70;73.30
39931;DHT22;26635;-35.248;149.138;2023-07-22T07:19:00;9.60;73.70
39931;DHT22;26635;-35.248;149.138;2023-07-22T07:21:32;9.50;73.80
39931;DHT22;26635;-35.248;149.138;2023-07-22T07:24:05;9.40;74.20
39931;DHT22;26635;-35.248;149.138;2023-07-22T07:26:36;9.30;74.80
39931;DHT22;26635;-35.248;149.138;2023-07-22T07:29:07;9.20;75.40
39931;DHT22;26635;-35.248;149.138;2023-07-22T07:31:38;9.10;75.40
39931;DHT22;26635;-35.248;149.138;2023-07-22T07:34:11;8.90;76.10
39931;DHT22;26635;-35.248;149.138;2023-07-22T07:36:42;8.80;76.30
39931;DHT22;26635;-35.248;149.138;2023-07-22T07:39:14;8.70;76.80
39931;DHT22;26635;-35.248;149.138;2023-07-22T07:41:47;8.60;77.50
39931;DHT22;26635;-35.248;149.138;2023-07-22T07:44:17;8.50;78.10
39931;DHT22;26635;-35.248;149.138;2023-07-22T07:46:48;8.50;78.50
39931;DHT22;26635;-35.248;149.138;2023-07-22T07:49:19;8.40;78.90
39931;DHT22;26635;-35.248;149.138;2023-07-22T07:51:53;8.30;79.80
39931;DHT22;26635;-35.248;149.138;2023-07-22T07:54:24;8.30;79.80
39931;DHT22;26635;-35.248;149.138;2023-07-22T07:57:00;8.20;80.20
39931;DHT22;26635;-35.248;149.138;2023-07-22T07:59:33;8.20;80.50
39931;DHT22;26635;-35.248;149.138;2023-07-22T08:02:07;8.10;80.60
39931;DHT22;26635;-35.248;149.138;2023-07-22T08:04:49;8.00;80.80
39931;DHT22;26635;-35.248;149.138;2023-07-22T08:07:24;8.00;80.80
39931;DHT22;26635;-35.248;149.138;2023-07-22T08:10:00;7.80;81.10
39931;DHT22;26635;-35.248;149.138;2023-07-22T08:12:34;7.70;81.40
39931;DHT22;26635;-35.248;149.138;2023-07-22T08:15:07;7.70;81.80
39931;DHT22;26635;-35.248;149.138;2023-07-22T08:17:38;7.60;81.70
39931;DHT22;26635;-35.248;149.138;2023-07-22T08:20:09;7.60;82.00
39931;DHT22;26635;-35.248;149.138;2023-07-22T08:22:41;7.60;82.10
39931;DHT22;26635;-35.248;149.138;2023-07-22T08:25:14;7.50;82.70
39931;DHT22;26635;-35.248;149.138;2023-07-22T08:27:45;7.50;82.30
39931;DHT22;26635;-35.248;149.138;2023-07-22T08:30:19;7.40;82.40
39931;DHT22;26635;-35.248;149.138;2023-07-22T08:32:55;7.40;82.60
39931;DHT22;26635;-35.248;149.138;2023-07-22T08:35:26;7.30;83.00
39931;DHT22;26635;-35.248;149.138;2023-07-22T08:37:59;7.20;83.50
39931;DHT22;26635;-35.248;149.138;2023-07-22T08:40:41;7.20;84.30
39931;DHT22;26635;-35.248;149.138;2023-07-22T08:43:12;7.10;84.10
39931;DHT22;26635;-35.248;149.138;2023-07-22T08:45:43;7.10;84.60
39931;DHT22;26635;-35.248;149.138;2023-07-22T08:48:16;7.10;84.50
39931;DHT22;26635;-35.248;149.138;2023-07-22T08:50:53;7.10;84.10
39931;DHT22;26635;-35.248;149.138;2023-07-22T08:53:26;7.00;84.30
39931;DHT22;26635;-35.248;149.138;2023-07-22T08:55:58;6.90;84.70
39931;DHT22;26635;-35.248;149.138;2023-07-22T08:58:31;6.90;85.40
39931;DHT22;26635;-35.248;149.138;2023-07-22T09:01:03;6.80;85.80
39931;DHT22;26635;-35.248;149.138;2023-07-22T09:03:36;6.70;86.00
39931;DHT22;26635;-35.248;149.138;2023-07-22T09:06:08;6.70;85.80
39931;DHT22;26635;-35.248;149.138;2023-07-22T09:08:39;6.60;85.70
39931;DHT22;26635;-35.248;149.138;2023-07-22T09:11:11;6.50;86.40
39931;DHT22;26635;-35.248;149.138;2023-07-22T09:13:45;6.40;86.50
39931;DHT22;26635;-35.248;149.138;2023-07-22T09:16:17;6.40;86.90
39931;DHT22;26635;-35.248;149.138;2023-07-22T09:19:04;6.30;86.10
39931;DHT22;26635;-35.248;149.138;2023-07-22T09:21:36;6.20;86.20
39931;DHT22;26635;-35.248;149.138;2023-07-22T09:24:36;6.20;87.20
39931;DHT22;26635;-35.248;149.138;2023-07-22T09:27:08;6.00;89.20
39931;DHT22;26635;-35.248;149.138;2023-07-22T09:29:39;6.00;88.10
39931;DHT22;26635;-35.248;149.138;2023-07-22T09:32:12;5.90;88.20
39931;DHT22;26635;-35.248;149.138;2023-07-22T09:35:10;5.80;88.30
39931;DHT22;26635;-35.248;149.138;2023-07-22T09:37:41;5.80;89.00
39931;DHT22;26635;-35.248;149.138;2023-07-22T09:40:30;5.70;88.40
39931;DHT22;26635;-35.248;149.138;2023-07-22T09:43:04;5.70;88.80
39931;DHT22;26635;-35.248;149.138;2023-07-22T09:45:35;5.70;89.10
39931;DHT22;26635;-35.248;149.138;2023-07-22T09:48:09;5.60;89.20
39931;DHT22;26635;-35.248;149.138;2023-07-22T09:50:39;5.60;89.50
39931;DHT22;26635;-35.248;149.138;2023-07-22T09:53:15;5.60;90.40
39931;DHT22;26635;-35.248;149.138;2023-07-22T09:55:46;5.50;90.00
39931;DHT22;26635;-35.248;149.138;2023-07-22T09:58:17;5.50;90.10
39931;DHT22;26635;-35.248;149.138;2023-07-22T10:00:48;5.40;90.00
39931;DHT22;26635;-35.248;149.138;2023-07-22T10:03:21;5.40;90.40
39931;DHT22;26635;-35.248;149.138;2023-07-22T10:05:54;5.30;90.50
39931;DHT22;26635;-35.248;149.138;2023-07-22T23:43:10;5.30;91.60
39931;DHT22;26635;-35.248;149.138;2023-07-22T23:46:22;5.60;91.40
39931;DHT22;26635;-35.248;149.138;2023-07-22T23:48:52;5.80;90.90
39931;DHT22;26635;-35.248;149.138;2023-07-22T23:51:22;6.00;90.80
39931;DHT22;26635;-35.248;149.138;2023-07-22T23:53:54;6.20;90.40
39931;DHT22;26635;-35.248;149.138;2023-07-22T23:56:24;6.30;90.10
39931;DHT22;26635;-35.248;149.138;2023-07-22T23:58:55;6.50;89.70
